Weather observations for the past three days for
Pueblo Memorial Airport
Imperial (Metric)
Date Time (mdt) Wind (mph) Vis. (mi.) Weather Sky Cond. Temperature (ºF) Relative Humidity Wind Chill (°F) Heat Index (°F) Pressure Precipitation (in)
Air Dwpt 6 hour altimeter (in) sea level (mb) 1 hr 3 hr 6 hr
Max. Min.
04 12:53 W 15 G 26 10.00 Fair CLR 79 23 12% 78 29.73 1000.7
04 11:53 W 17 G 25 10.00 Fair CLR 77 26.1 78.1 51.1 15% 76 29.76 1001.5
04 10:53 W 21 G 33 10.00 Fair and Breezy CLR 75.9 28 17% 76 29.78 1002.3
04 09:53 W 26 G 41 10.00 Fair and Windy CLR 73 28.9 19% 29.79 1003.0
04 08:53 W 26 G 39 10.00 Fair and Windy CLR 70 30.9 23% 29.81 1003.5
04 07:53 W 21 G 30 10.00 Fair and Breezy CLR 64.9 33.1 31% 29.8 1003.4
04 06:53 NW 16 G 29 10.00 Mostly Cloudy BKN110 59 30 33% 29.8 1003.7
04 05:53 W 7 10.00 Fair CLR 52 33.1 63 48 49% 29.82 1004.6
04 04:53 SW 13 10.00 Fair CLR 50 36 59% 46 29.83 1005.2
04 03:53 SW 6 10.00 Fair CLR 50 34 54% 48 29.82 1004.5
04 02:53 SW 7 10.00 Fair CLR 48 33.1 56% 45 29.82 1005.1
04 01:53 NW 8 10.00 Fair CLR 52 33.1 49% 29.84 1005.4
04 00:53 NW 6 10.00 Fair CLR 55.9 30 37% 29.86 1005.8
03 23:53 Calm 10.00 Fair CLR 63 27 78.1 60.1 26% 29.86 1005.1
03 22:53 N 13 10.00 A Few Clouds FEW120 63 28 27% 29.84 1004.8
03 21:53 N 8 10.00 Fair CLR 64.9 26.1 23% 29.84 1004.6
03 20:53 NW 7 10.00 A Few Clouds FEW120 68 25 20% 29.83 1004.9
03 19:53 SW 6 10.00 Fair CLR 71.1 19.9 14% 29.81 1004.7
03 18:53 W 5 10.00 Fair CLR 75 21 13% 75 29.81 1005.0
03 17:53 S 8 10.00 Fair CLR 77 17.1 79 73.9 10% 76 29.81 1005.4
03 16:53 W 5 10.00 Fair CLR 78.1 17.1 10% 77 29.82 1005.7
03 15:53 SW 12 G 22 10.00 Fair CLR 79 17.1 10% 77 29.86 1006.6
03 14:53 NW 9 G 18 10.00 Fair CLR 77 17.1 10% 76 29.89 1008.2
03 13:53 W 9 G 23 10.00 Fair CLR 75.9 18 11% 75 29.92 1009.1
03 12:53 W 12 10.00 Fair CLR 75 18 11% 75 29.96 1010.1
03 11:53 NW 18 G 25 10.00 Fair CLR 75 18 75 37 11% 75 29.99 1011.1
03 10:53 W 14 10.00 Fair CLR 73 21.9 15% 30.01 1012.0
03 09:53 W 17 G 28 10.00 Fair CLR 70 25 18% 30.03 1012.4
03 08:53 W 9 10.00 Fair CLR 62.1 33.1 34% 30.04 1013.3
03 07:53 SW 7 10.00 Fair CLR 54 33.1 45% 30.05 1013.5
03 06:53 W 7 10.00 Fair CLR 45 33.1 63% 42 30.04 1013.6
03 05:53 W 6 10.00 Fair CLR 37.9 32 48.9 37.9 79% 34 30.03 1013.8
03 04:53 W 6 10.00 Fair CLR 39 32 76% 35 30.03 1013.8
03 03:53 W 8 10.00 Fair CLR 42.1 32 68% 38 30.03 1013.7
03 02:53 W 5 10.00 Fair CLR 41 35.1 79% 38 30.03 1013.9
03 01:53 Calm 10.00 Fair CLR 44.1 36 73% 30.04 1014.3
03 00:53 NE 3 10.00 Fair CLR 46 33.1 61% 30.05 1014.4
02 23:53 NE 6 10.00 Fair CLR 46.9 32 70 46.9 56% 45 30.05 1014.5
02 22:53 Calm 10.00 Fair CLR 48 30 50% 30.06 1014.7
02 21:53 E 5 10.00 Fair CLR 54 28 37% 30.06 1014.8
02 20:53 E 5 10.00 Fair CLR 57 28 33% 30.05 1014.7
02 19:53 E 6 10.00 Fair CLR 64.9 19.9 18% 30.04 1013.9
02 18:53 SE 9 10.00 Fair CLR 69.1 12 11% 30.04 1014.3
02 17:53 Vrbl 7 10.00 Fair CLR 70 14 71.1 63 11% 30.05 1014.9
02 16:53 Vrbl 3 10.00 Fair CLR 70 15.1 12% 30.06 1015.2
02 15:53 Vrbl 5 10.00 Fair CLR 69.1 17.1 14% 30.09 1015.9
02 14:53 S 8 G 18 10.00 Fair CLR 69.1 19.9 15% 30.12 1016.7
02 13:53 Vrbl 5 10.00 Fair CLR 66 21 18% 30.14 1017.6
02 12:53 Vrbl 6 10.00 Fair CLR 64.9 18 16% 30.16 1018.6
02 11:53 Calm 10.00 Fair CLR 63 21 64 35.1 20% 30.18 1019.3
02 10:53 Vrbl 3 10.00 Fair CLR 63 23 22% 30.19 1019.8
02 09:53 Calm 10.00 Fair CLR 57.9 33.1 39% 30.2 1019.7
02 08:53 W 7 10.00 Fair CLR 50 30.9 48% 48 30.21 1020.6
02 07:53 W 9 10.00 Fair CLR 46 30.9 56% 42 30.21 1020.7
02 06:53 NW 5 10.00 Fair CLR 37 32 82% 34 30.2 1020.8
02 05:53 W 8 10.00 Fair CLR 36 30.9 44.1 35.1 82% 30 30.19 1020.5
02 04:53 W 3 10.00 Fair CLR 36 32 86% 30.18 1020.3
02 03:53 NW 5 10.00 Fair CLR 37.9 34 86% 35 30.17 1020.0
02 02:53 W 8 10.00 Fair CLR 39.9 35.1 83% 35 30.17 1019.8
02 01:53 W 7 10.00 Fair CLR 41 36 82% 37 30.17 1019.7
02 00:53 Calm 10.00 Fair CLR 39.9 37 89% 30.17 1020.0
01 23:53 SW 7 10.00 Fair CLR 44.1 37 60.1 43 76% 41 30.16 1019.4
01 22:53 W 7 10.00 Fair CLR 43 37 80% 39 30.15 1019.2
01 21:53 SW 5 10.00 Fair CLR 48.9 37 64% 48 30.14 1018.7
01 20:53 SW 3 10.00 Fair CLR 53.1 32 45% 30.13 1018.1
01 19:53 S 6 10.00 Fair CLR 55.9 30.9 39% 30.11 1017.4
01 18:53 Calm 10.00 Fair CLR 59 28 31% 30.09 1016.6
01 17:53 N 8 10.00 Fair CLR 59 28 60.1 53.1 31% 30.09 1016.7
01 16:53 Vrbl 3 10.00 A Few Clouds FEW090 59 28.9 32% 30.09 1016.5
01 15:53 SW 7 10.00 Partly Cloudy SCT090 57.9 30 35% 30.1 1017.2
01 14:53 Vrbl 3 10.00 Overcast SCT060 SCT070 OVC090 57 28.9 34% 30.12 1017.7
01 13:53 E 7 10.00 NULL NULL 57 28.9 34% 30.13 1018.4
Date Time (mdt) Wind (mph) Vis. (mi.) Weather Sky Cond. Air Dwpt Max. Min. Relative Humidity Wind Chill (°F) Heat Index (°F) altimeter (in) sea level (mb) 1 hr 3 hr 6 hr
6 hour
Temperature (ºF) Pressure Precipitation (in)